sensor_id;sensor_type;location;lat;lon;timestamp;P1;durP1;ratioP1;P2;durP2;ratioP2
61483;SDS011;47349;55.640;37.692;2022-11-20T07:48:36;25.95;;;14.15;;
61483;SDS011;47349;55.640;37.692;2022-11-20T07:51:18;28.45;;;15.43;;
61483;SDS011;47349;55.640;37.692;2022-11-20T07:54:02;30.42;;;15.45;;
61483;SDS011;47349;55.640;37.692;2022-11-20T07:56:38;29.90;;;14.32;;
61483;SDS011;47349;55.640;37.692;2022-11-20T07:59:37;27.38;;;13.68;;
61483;SDS011;47349;55.640;37.692;2022-11-20T12:51:34;21.88;;;11.20;;
61483;SDS011;47349;55.640;37.692;2022-11-20T12:58:00;18.77;;;10.27;;
61483;SDS011;47349;55.640;37.692;2022-11-20T13:01:10;22.38;;;10.75;;
61483;SDS011;47349;55.640;37.692;2022-11-20T13:04:43;27.10;;;12.77;;
61483;SDS011;47349;55.640;37.692;2022-11-20T13:07:53;22.77;;;11.70;;
61483;SDS011;47349;55.640;37.692;2022-11-20T13:10:42;21.88;;;13.18;;
61483;SDS011;47349;55.640;37.692;2022-11-20T13:13:33;27.25;;;14.73;;
61483;SDS011;47349;55.640;37.692;2022-11-20T13:19:24;25.27;;;13.10;;
61483;SDS011;47349;55.640;37.692;2022-11-20T13:21:52;22.15;;;12.60;;
61483;SDS011;47349;55.640;37.692;2022-11-20T13:29:31;25.00;;;14.25;;
61483;SDS011;47349;55.640;37.692;2022-11-20T13:32:03;30.30;;;14.23;;
61483;SDS011;47349;55.640;37.692;2022-11-20T13:34:50;21.50;;;12.25;;
61483;SDS011;47349;55.640;37.692;2022-11-20T13:37:30;29.38;;;13.85;;
61483;SDS011;47349;55.640;37.692;2022-11-20T13:42:56;27.83;;;13.68;;
61483;SDS011;47349;55.640;37.692;2022-11-20T13:45:31;25.40;;;13.98;;
61483;SDS011;47349;55.640;37.692;2022-11-20T13:48:33;25.83;;;14.60;;
61483;SDS011;47349;55.640;37.692;2022-11-20T13:51:34;26.02;;;14.27;;
61483;SDS011;47349;55.640;37.692;2022-11-20T14:00:50;25.08;;;12.73;;
61483;SDS011;47349;55.640;37.692;2022-11-20T14:03:40;21.30;;;11.13;;
61483;SDS011;47349;55.640;37.692;2022-11-20T14:06:28;22.58;;;9.68;;
61483;SDS011;47349;55.640;37.692;2022-11-20T14:09:32;22.98;;;12.25;;
61483;SDS011;47349;55.640;37.692;2022-11-20T14:12:33;24.02;;;12.60;;
61483;SDS011;47349;55.640;37.692;2022-11-20T14:18:28;18.35;;;9.25;;
61483;SDS011;47349;55.640;37.692;2022-11-20T14:21:27;23.35;;;12.38;;
61483;SDS011;47349;55.640;37.692;2022-11-20T14:24:29;16.42;;;9.18;;
61483;SDS011;47349;55.640;37.692;2022-11-20T14:27:21;20.75;;;9.73;;
61483;SDS011;47349;55.640;37.692;2022-11-20T14:30:43;13.63;;;8.23;;
61483;SDS011;47349;55.640;37.692;2022-11-20T14:34:39;18.50;;;10.57;;
61483;SDS011;47349;55.640;37.692;2022-11-20T14:38:00;22.80;;;10.45;;
61483;SDS011;47349;55.640;37.692;2022-11-20T14:40:44;21.60;;;10.70;;
61483;SDS011;47349;55.640;37.692;2022-11-20T14:43:28;21.08;;;10.57;;
61483;SDS011;47349;55.640;37.692;2022-11-20T14:46:42;23.17;;;9.98;;
61483;SDS011;47349;55.640;37.692;2022-11-20T14:49:35;25.52;;;12.43;;
61483;SDS011;47349;55.640;37.692;2022-11-20T14:52:23;23.27;;;11.65;;
61483;SDS011;47349;55.640;37.692;2022-11-20T14:58:23;25.20;;;12.30;;
61483;SDS011;47349;55.640;37.692;2022-11-20T15:01:14;24.52;;;12.80;;
61483;SDS011;47349;55.640;37.692;2022-11-20T15:12:04;25.58;;;13.52;;
61483;SDS011;47349;55.640;37.692;2022-11-20T15:15:47;26.23;;;14.23;;
61483;SDS011;47349;55.640;37.692;2022-11-20T15:20:05;23.75;;;13.07;;
61483;SDS011;47349;55.640;37.692;2022-11-20T15:23:25;25.10;;;13.30;;
61483;SDS011;47349;55.640;37.692;2022-11-20T15:30:38;25.92;;;13.40;;
61483;SDS011;47349;55.640;37.692;2022-11-20T15:33:24;24.60;;;13.30;;
61483;SDS011;47349;55.640;37.692;2022-11-20T15:36:27;30.08;;;14.18;;
61483;SDS011;47349;55.640;37.692;2022-11-20T15:39:20;28.63;;;13.63;;
61483;SDS011;47349;55.640;37.692;2022-11-20T15:46:10;27.27;;;14.88;;
61483;SDS011;47349;55.640;37.692;2022-11-20T15:49:44;29.00;;;13.43;;
61483;SDS011;47349;55.640;37.692;2022-11-20T15:53:00;27.95;;;13.60;;
61483;SDS011;47349;55.640;37.692;2022-11-20T15:56:16;30.27;;;14.02;;
61483;SDS011;47349;55.640;37.692;2022-11-20T16:00:31;18.35;;;8.93;;
61483;SDS011;47349;55.640;37.692;2022-11-20T16:03:50;25.08;;;12.25;;
61483;SDS011;47349;55.640;37.692;2022-11-20T16:07:13;29.40;;;14.38;;
61483;SDS011;47349;55.640;37.692;2022-11-20T16:10:07;29.75;;;13.50;;
61483;SDS011;47349;55.640;37.692;2022-11-20T16:18:00;25.38;;;12.27;;
61483;SDS011;47349;55.640;37.692;2022-11-20T16:21:10;28.83;;;13.70;;
61483;SDS011;47349;55.640;37.692;2022-11-20T16:24:43;26.27;;;12.63;;
61483;SDS011;47349;55.640;37.692;2022-11-20T16:33:36;33.22;;;15.18;;
61483;SDS011;47349;55.640;37.692;2022-11-20T16:37:12;21.48;;;10.80;;
61483;SDS011;47349;55.640;37.692;2022-11-20T20:34:45;43.03;;;19.27;;
61483;SDS011;47349;55.640;37.692;2022-11-20T20:37:29;48.67;;;19.05;;
61483;SDS011;47349;55.640;37.692;2022-11-20T20:40:11;48.90;;;19.95;;
61483;SDS011;47349;55.640;37.692;2022-11-20T20:46:26;45.20;;;18.73;;
61483;SDS011;47349;55.640;37.692;2022-11-20T20:49:09;45.83;;;20.55;;
61483;SDS011;47349;55.640;37.692;2022-11-20T20:51:50;44.60;;;17.35;;
61483;SDS011;47349;55.640;37.692;2022-11-20T20:54:33;43.40;;;18.08;;
61483;SDS011;47349;55.640;37.692;2022-11-20T20:57:14;49.30;;;20.90;;
61483;SDS011;47349;55.640;37.692;2022-11-20T21:00:04;45.05;;;20.20;;
61483;SDS011;47349;55.640;37.692;2022-11-20T21:03:25;53.95;;;21.30;;
61483;SDS011;47349;55.640;37.692;2022-11-20T21:07:13;46.42;;;20.88;;
61483;SDS011;47349;55.640;37.692;2022-11-20T21:10:01;43.13;;;18.38;;
61483;SDS011;47349;55.640;37.692;2022-11-20T21:12:43;35.13;;;17.13;;
61483;SDS011;47349;55.640;37.692;2022-11-20T21:15:44;37.20;;;16.90;;
61483;SDS011;47349;55.640;37.692;2022-11-20T21:18:31;35.42;;;17.35;;
61483;SDS011;47349;55.640;37.692;2022-11-20T21:21:16;33.83;;;15.00;;
61483;SDS011;47349;55.640;37.692;2022-11-20T21:24:17;38.10;;;16.73;;
61483;SDS011;47349;55.640;37.692;2022-11-20T21:27:00;42.00;;;19.70;;
61483;SDS011;47349;55.640;37.692;2022-11-20T21:29:43;40.10;;;19.52;;
61483;SDS011;47349;55.640;37.692;2022-11-20T21:32:26;46.55;;;20.08;;
61483;SDS011;47349;55.640;37.692;2022-11-20T21:35:10;45.42;;;19.90;;
61483;SDS011;47349;55.640;37.692;2022-11-20T21:37:51;45.22;;;19.17;;
61483;SDS011;47349;55.640;37.692;2022-11-20T21:40:35;48.17;;;20.55;;
61483;SDS011;47349;55.640;37.692;2022-11-20T21:43:17;43.75;;;18.73;;
61483;SDS011;47349;55.640;37.692;2022-11-20T21:45:59;41.72;;;17.55;;
61483;SDS011;47349;55.640;37.692;2022-11-20T21:48:46;46.78;;;19.27;;
61483;SDS011;47349;55.640;37.692;2022-11-20T21:51:28;42.83;;;17.08;;
61483;SDS011;47349;55.640;37.692;2022-11-20T21:54:10;45.63;;;19.08;;
61483;SDS011;47349;55.640;37.692;2022-11-20T21:56:52;37.17;;;15.13;;
61483;SDS011;47349;55.640;37.692;2022-11-20T21:59:37;43.85;;;17.67;;
61483;SDS011;47349;55.640;37.692;2022-11-20T22:02:19;32.85;;;15.95;;
61483;SDS011;47349;55.640;37.692;2022-11-20T22:05:01;32.25;;;15.75;;
61483;SDS011;47349;55.640;37.692;2022-11-20T22:07:43;36.60;;;16.08;;
61483;SDS011;47349;55.640;37.692;2022-11-20T22:10:26;36.92;;;15.55;;
61483;SDS011;47349;55.640;37.692;2022-11-20T22:13:08;39.08;;;17.30;;
61483;SDS011;47349;55.640;37.692;2022-11-20T22:16:08;39.28;;;17.02;;
61483;SDS011;47349;55.640;37.692;2022-11-20T22:18:51;44.28;;;18.27;;
61483;SDS011;47349;55.640;37.692;2022-11-20T22:21:38;34.70;;;17.13;;
61483;SDS011;47349;55.640;37.692;2022-11-20T22:24:21;39.50;;;16.02;;
61483;SDS011;47349;55.640;37.692;2022-11-20T22:27:03;38.00;;;17.15;;
61483;SDS011;47349;55.640;37.692;2022-11-20T22:29:52;35.35;;;16.75;;
61483;SDS011;47349;55.640;37.692;2022-11-20T22:32:34;34.35;;;17.08;;
61483;SDS011;47349;55.640;37.692;2022-11-20T22:35:21;35.92;;;17.15;;
61483;SDS011;47349;55.640;37.692;2022-11-20T22:38:02;41.42;;;16.88;;
61483;SDS011;47349;55.640;37.692;2022-11-20T22:40:49;37.85;;;16.50;;
61483;SDS011;47349;55.640;37.692;2022-11-20T22:43:33;34.50;;;15.60;;
61483;SDS011;47349;55.640;37.692;2022-11-20T22:46:18;35.75;;;15.57;;
61483;SDS011;47349;55.640;37.692;2022-11-20T22:49:01;38.50;;;15.35;;
61483;SDS011;47349;55.640;37.692;2022-11-20T22:51:46;34.80;;;15.52;;
61483;SDS011;47349;55.640;37.692;2022-11-20T22:54:28;34.83;;;15.75;;
61483;SDS011;47349;55.640;37.692;2022-11-20T22:57:11;38.22;;;17.15;;
61483;SDS011;47349;55.640;37.692;2022-11-20T23:00:12;33.42;;;14.90;;
61483;SDS011;47349;55.640;37.692;2022-11-20T23:02:59;37.83;;;17.08;;
61483;SDS011;47349;55.640;37.692;2022-11-20T23:05:41;33.53;;;16.08;;
61483;SDS011;47349;55.640;37.692;2022-11-20T23:11:12;36.83;;;15.35;;
61483;SDS011;47349;55.640;37.692;2022-11-20T23:13:56;36.47;;;15.10;;
61483;SDS011;47349;55.640;37.692;2022-11-20T23:16:40;35.38;;;15.60;;
61483;SDS011;47349;55.640;37.692;2022-11-20T23:19:27;33.83;;;16.95;;
61483;SDS011;47349;55.640;37.692;2022-11-20T23:22:09;30.80;;;13.95;;
61483;SDS011;47349;55.640;37.692;2022-11-20T23:24:52;40.70;;;16.10;;
61483;SDS011;47349;55.640;37.692;2022-11-20T23:27:54;34.08;;;15.40;;
61483;SDS011;47349;55.640;37.692;2022-11-20T23:30:37;30.45;;;14.18;;
61483;SDS011;47349;55.640;37.692;2022-11-20T23:33:20;34.55;;;15.82;;
61483;SDS011;47349;55.640;37.692;2022-11-20T23:36:03;39.28;;;16.85;;
61483;SDS011;47349;55.640;37.692;2022-11-20T23:39:05;33.53;;;15.52;;
61483;SDS011;47349;55.640;37.692;2022-11-20T23:41:51;38.30;;;16.85;;
61483;SDS011;47349;55.640;37.692;2022-11-20T23:44:34;27.95;;;14.10;;
61483;SDS011;47349;55.640;37.692;2022-11-20T23:47:16;28.55;;;13.38;;
61483;SDS011;47349;55.640;37.692;2022-11-20T23:50:04;33.92;;;14.98;;
61483;SDS011;47349;55.640;37.692;2022-11-20T23:52:48;34.90;;;14.07;;
61483;SDS011;47349;55.640;37.692;2022-11-20T23:55:45;31.58;;;12.13;;
61483;SDS011;47349;55.640;37.692;2022-11-20T23:58:33;36.88;;;16.80;;
